createdAt,value
2023-05-10T00:02:07.011Z,60.10
2023-05-10T00:04:33.820Z,60.22
2023-05-10T00:07:00.444Z,56.75
2023-05-10T00:09:27.044Z,51.28
2023-05-10T00:11:53.796Z,52.20
2023-05-10T00:14:20.551Z,53.00
2023-05-10T00:16:47.316Z,56.55
2023-05-10T00:19:14.032Z,55.97
2023-05-10T00:21:40.622Z,55.20
2023-05-10T00:24:07.313Z,57.28
2023-05-10T00:26:34.063Z,62.97
2023-05-10T00:29:00.832Z,62.72
2023-05-10T00:31:27.590Z,66.15
2023-05-10T00:33:54.153Z,61.88
2023-05-10T00:36:21.864Z,60.20
2023-05-10T00:38:48.470Z,58.42
2023-05-10T00:41:15.030Z,55.38
2023-05-10T00:43:41.781Z,54.20
2023-05-10T00:46:08.836Z,49.60
2023-05-10T00:48:35.644Z,50.30
2023-05-10T00:51:04.319Z,49.72
2023-05-10T00:53:33.615Z,45.53
2023-05-10T00:56:00.684Z,43.83
2023-05-10T00:58:29.376Z,45.97
2023-05-10T01:00:58.144Z,43.40
2023-05-10T01:03:25.360Z,46.60
2023-05-10T01:05:52.090Z,43.95
2023-05-10T01:08:19.219Z,43.90
2023-05-10T01:10:46.627Z,49.75
2023-05-10T01:13:19.882Z,45.20
2023-05-10T01:15:47.561Z,42.50
2023-05-10T01:18:14.235Z,46.80
2023-05-10T01:20:47.524Z,46.97
2023-05-10T01:26:02.232Z,41.60
2023-05-10T01:28:56.504Z,43.13
2023-05-10T01:32:02.399Z,39.78
2023-05-10T01:34:52.510Z,45.58
2023-05-10T01:37:30.111Z,39.80
2023-05-10T01:40:11.827Z,39.33
2023-05-10T01:42:46.045Z,43.17
2023-05-10T01:45:42.667Z,39.55
2023-05-10T01:48:15.105Z,49.88
2023-05-10T01:50:44.568Z,40.05
2023-05-10T01:53:14.031Z,46.88
2023-05-10T01:55:53.425Z,52.00
2023-05-10T01:58:32.614Z,52.35
2023-05-10T02:01:02.837Z,48.28
2023-05-10T02:03:32.046Z,53.35
2023-05-10T02:05:58.886Z,52.38
2023-05-10T02:08:26.642Z,54.17
2023-05-10T02:10:55.510Z,58.08
2023-05-10T02:13:24.382Z,50.55
2023-05-10T02:15:52.349Z,49.42
2023-05-10T02:18:19.626Z,53.08
2023-05-10T02:20:48.149Z,56.08
2023-05-10T02:23:15.656Z,55.80
2023-05-10T02:25:44.274Z,55.67
2023-05-10T02:28:12.813Z,64.47
2023-05-10T02:30:40.276Z,58.30
2023-05-10T02:33:07.671Z,54.22
2023-05-10T02:35:35.886Z,60.17
2023-05-10T02:38:02.847Z,58.92
2023-05-10T02:40:29.923Z,63.70
2023-05-10T02:42:58.062Z,59.95
2023-05-10T02:45:29.126Z,59.00
2023-05-10T02:47:56.691Z,63.67
2023-05-10T02:50:26.796Z,69.78
2023-05-10T02:52:57.415Z,78.82
2023-05-10T02:55:28.079Z,74.85
2023-05-10T02:58:00.270Z,77.57
2023-05-10T03:00:27.324Z,79.30
2023-05-10T03:02:54.351Z,81.97
2023-05-10T03:05:21.567Z,83.68
2023-05-10T03:07:48.459Z,77.00
2023-05-10T03:10:15.448Z,74.35
2023-05-10T03:12:54.193Z,75.97
2023-05-10T03:15:30.696Z,79.55
2023-05-10T03:18:12.253Z,74.22
2023-05-10T03:20:49.797Z,83.85
2023-05-10T03:23:19.432Z,77.78
2023-05-10T03:25:49.006Z,73.43
2023-05-10T03:28:17.194Z,74.78
2023-05-10T03:30:45.000Z,66.75
2023-05-10T03:33:11.853Z,68.20
2023-05-10T03:35:38.428Z,69.95
2023-05-10T03:38:05.020Z,64.05
2023-05-10T03:40:33.029Z,75.18
2023-05-10T03:43:00.313Z,64.07
2023-05-10T03:45:27.424Z,63.40
2023-05-10T03:47:55.081Z,68.15
2023-05-10T03:50:22.138Z,66.80
2023-05-10T03:52:49.193Z,73.35
2023-05-10T03:55:16.015Z,74.45
2023-05-10T03:57:42.971Z,73.20
2023-05-10T04:00:10.693Z,72.00
2023-05-10T04:02:38.409Z,66.50
2023-05-10T04:05:05.510Z,60.90
2023-05-10T04:07:32.138Z,58.17
2023-05-10T04:09:58.827Z,53.90
2023-05-10T04:12:25.637Z,55.65
2023-05-10T04:14:52.289Z,64.45
2023-05-10T04:17:19.016Z,56.92
2023-05-10T04:19:45.717Z,54.47
2023-05-10T04:22:12.298Z,53.58
2023-05-10T04:24:38.863Z,47.97
2023-05-10T04:27:05.409Z,51.70
2023-05-10T04:29:32.179Z,49.35
2023-05-10T04:31:58.902Z,45.20
2023-05-10T04:34:25.509Z,47.15
2023-05-10T04:36:52.112Z,46.15
2023-05-10T04:39:19.100Z,41.83
2023-05-10T04:41:45.707Z,45.60
2023-05-10T04:44:12.350Z,42.95
2023-05-10T04:46:38.978Z,40.30
2023-05-10T04:49:05.604Z,39.60
2023-05-10T04:51:32.899Z,42.50
2023-05-10T04:54:05.978Z,39.00
2023-05-10T04:56:33.490Z,43.33
2023-05-10T04:59:00.146Z,36.38
2023-05-10T05:01:26.849Z,35.47
2023-05-10T05:03:54.080Z,47.10
2023-05-10T05:06:22.186Z,38.47
2023-05-10T05:08:50.610Z,39.47
2023-05-10T05:11:18.104Z,36.63
2023-05-10T05:13:44.938Z,41.45
2023-05-10T05:16:12.561Z,35.33
2023-05-10T05:18:39.948Z,42.42
2023-05-10T05:21:19.843Z,39.58
2023-05-10T05:23:46.907Z,40.10
2023-05-10T05:26:13.571Z,41.85
2023-05-10T05:28:40.325Z,39.95
2023-05-10T05:31:08.732Z,38.13
2023-05-10T05:33:35.589Z,32.97
2023-05-10T05:36:06.604Z,31.52
2023-05-10T05:38:33.758Z,30.80
2023-05-10T05:41:00.509Z,36.03
2023-05-10T05:43:27.427Z,27.60
2023-05-10T05:45:55.036Z,33.03
2023-05-10T05:48:23.423Z,32.47
2023-05-10T05:50:50.261Z,36.10
2023-05-10T05:53:16.898Z,32.28
2023-05-10T05:55:57.320Z,39.75
2023-05-10T05:58:24.091Z,33.72
2023-05-10T06:00:51.279Z,30.17
2023-05-10T06:03:18.065Z,27.10
2023-05-10T06:05:45.126Z,25.33
2023-05-10T06:08:12.006Z,29.40
2023-05-10T06:10:38.703Z,18.55
2023-05-10T06:13:05.492Z,22.42
2023-05-10T06:15:33.673Z,23.35
2023-05-10T06:18:00.534Z,21.27
2023-05-10T06:20:27.401Z,17.05
2023-05-10T06:22:54.045Z,17.90
2023-05-10T06:25:20.649Z,22.27
2023-05-10T06:27:50.931Z,22.45
2023-05-10T06:30:19.621Z,21.52
2023-05-10T06:32:46.522Z,17.30
2023-05-10T06:35:13.252Z,17.83
2023-05-10T06:37:40.020Z,17.65
2023-05-10T06:40:07.863Z,20.80
2023-05-10T06:42:34.411Z,15.32
2023-05-10T06:45:01.028Z,20.58
2023-05-10T06:47:27.816Z,15.85
2023-05-10T06:49:54.637Z,16.23
2023-05-10T06:52:21.191Z,15.50
2023-05-10T06:54:47.835Z,13.90
2023-05-10T06:57:27.718Z,19.75
2023-05-10T07:02:24.757Z,17.70
2023-05-10T07:04:52.903Z,19.67
2023-05-10T07:07:20.028Z,12.50
2023-05-10T07:09:46.726Z,11.02
2023-05-10T07:12:15.430Z,14.07
2023-05-10T07:14:43.150Z,15.30
2023-05-10T07:17:10.220Z,10.13
2023-05-10T07:19:37.230Z,10.15
2023-05-10T07:22:04.064Z,9.82
2023-05-10T07:24:32.238Z,9.93
2023-05-10T07:26:58.948Z,12.10
2023-05-10T07:29:25.609Z,9.20
2023-05-10T07:31:52.351Z,8.73
2023-05-10T07:34:19.014Z,8.98
2023-05-10T07:36:45.682Z,9.48
2023-05-10T07:39:16.224Z,11.55
2023-05-10T07:41:45.336Z,10.02
2023-05-10T07:44:11.884Z,8.65
2023-05-10T07:46:38.616Z,8.13
2023-05-10T07:49:05.308Z,5.57
2023-05-10T07:51:32.698Z,8.68
2023-05-10T07:53:59.334Z,4.88
2023-05-10T07:56:31.159Z,5.55
2023-05-10T07:58:57.830Z,6.07
2023-05-10T08:01:24.957Z,8.80
2023-05-10T08:03:52.527Z,9.45
2023-05-10T08:06:19.877Z,9.32
2023-05-10T08:08:50.413Z,9.25
2023-05-10T08:11:21.587Z,9.43
2023-05-10T08:13:49.293Z,10.55
2023-05-10T08:16:16.681Z,8.45
2023-05-10T08:18:45.119Z,8.55
2023-05-10T08:21:14.744Z,8.02
2023-05-10T08:23:41.730Z,9.10
2023-05-10T08:26:08.445Z,11.07
2023-05-10T08:28:35.090Z,8.18
2023-05-10T08:31:01.664Z,8.45
2023-05-10T08:33:28.321Z,8.38
2023-05-10T08:35:54.944Z,12.35
2023-05-10T08:38:21.556Z,6.70
2023-05-10T08:40:51.871Z,6.70
2023-05-10T08:43:19.308Z,6.60
2023-05-10T08:45:48.737Z,5.15
2023-05-10T08:48:16.401Z,6.10
2023-05-10T08:50:44.064Z,6.05
2023-05-10T08:53:12.986Z,7.68
2023-05-10T08:55:41.095Z,6.80
2023-05-10T08:58:07.979Z,7.15
2023-05-10T09:00:35.201Z,8.20
2023-05-10T09:03:03.863Z,9.20
2023-05-10T09:05:30.652Z,11.25
2023-05-10T09:07:57.219Z,9.38
2023-05-10T09:10:27.031Z,11.95
2023-05-10T09:12:58.604Z,10.27
2023-05-10T09:15:26.147Z,13.90
2023-05-10T09:17:52.822Z,15.35
2023-05-10T09:20:20.694Z,15.10
2023-05-10T09:22:47.436Z,10.77
2023-05-10T09:25:15.978Z,12.65
2023-05-10T09:27:46.319Z,12.10
2023-05-10T09:30:18.050Z,10.95
2023-05-10T09:32:46.374Z,12.15
2023-05-10T09:35:15.106Z,9.68
2023-05-10T09:37:49.235Z,12.65
2023-05-10T09:40:28.694Z,6.93
2023-05-10T09:43:03.618Z,8.63
2023-05-10T09:45:32.052Z,8.15
2023-05-10T09:48:00.479Z,6.43
2023-05-10T09:50:27.684Z,8.07
2023-05-10T09:52:59.319Z,6.07
2023-05-10T09:55:47.688Z,8.02
2023-05-10T09:58:15.388Z,6.18
2023-05-10T10:00:44.345Z,7.07
2023-05-10T10:03:16.331Z,6.43
2023-05-10T10:05:44.604Z,6.88
2023-05-10T10:08:12.978Z,3.33
2023-05-10T10:10:41.578Z,5.03
2023-05-10T10:13:08.878Z,4.47
2023-05-10T10:15:36.065Z,3.67
2023-05-10T10:18:05.178Z,5.88
2023-05-10T10:20:32.548Z,5.03
2023-05-10T10:22:59.181Z,7.43
2023-05-10T10:25:26.496Z,4.47
2023-05-10T10:27:53.205Z,5.50
2023-05-10T10:30:28.227Z,2.10
2023-05-10T10:33:10.234Z,3.88
2023-05-10T10:35:46.607Z,2.90
2023-05-10T10:38:14.810Z,2.97
2023-05-10T10:40:41.698Z,3.17
2023-05-10T10:43:27.791Z,5.47
2023-05-10T10:46:18.078Z,10.63
2023-05-10T10:49:10.596Z,14.63
2023-05-10T10:51:40.866Z,16.45
2023-05-10T10:54:11.455Z,16.70
2023-05-10T10:56:38.286Z,18.10
2023-05-10T10:59:05.344Z,15.50
2023-05-10T11:01:38.210Z,17.80
2023-05-10T11:04:04.783Z,15.77
2023-05-10T11:06:36.991Z,17.88
2023-05-10T11:09:09.024Z,18.88
2023-05-10T11:11:36.744Z,18.48
2023-05-10T11:14:07.978Z,16.60
2023-05-10T11:16:45.247Z,15.80
2023-05-10T11:19:14.038Z,17.27
2023-05-10T11:22:14.624Z,15.32
2023-05-10T11:24:41.241Z,18.52
2023-05-10T11:27:08.130Z,18.33
2023-05-10T11:29:34.742Z,16.45
2023-05-10T11:32:01.376Z,17.00
2023-05-10T11:34:36.018Z,20.17
2023-05-10T11:37:02.885Z,21.30
2023-05-10T11:39:33.055Z,17.90
2023-05-10T11:42:00.511Z,16.50
2023-05-10T11:44:33.951Z,18.35
2023-05-10T11:47:01.871Z,19.73
2023-05-10T11:49:28.718Z,14.82
2023-05-10T11:52:05.314Z,12.98
2023-05-10T11:54:32.217Z,13.30
2023-05-10T11:56:58.860Z,11.90
2023-05-10T11:59:26.265Z,11.32
2023-05-10T12:01:53.103Z,12.02
2023-05-10T12:04:20.466Z,10.70
2023-05-10T12:06:47.676Z,8.80
2023-05-10T12:09:14.335Z,11.18
2023-05-10T12:11:43.987Z,10.77
2023-05-10T12:14:11.716Z,10.32
2023-05-10T12:16:38.433Z,10.63
2023-05-10T12:19:05.179Z,12.55
2023-05-10T12:21:32.464Z,12.15
2023-05-10T12:24:06.255Z,13.30
2023-05-10T12:26:32.990Z,13.45
2023-05-10T12:29:19.645Z,13.05
2023-05-10T12:31:57.629Z,15.45
2023-05-10T12:34:30.906Z,13.75
2023-05-10T12:36:57.905Z,14.10
2023-05-10T12:39:24.963Z,13.20
2023-05-10T12:41:52.220Z,14.00
2023-05-10T12:44:19.372Z,21.17
2023-05-10T12:46:46.007Z,12.43
2023-05-10T12:49:12.899Z,14.52
2023-05-10T12:51:39.466Z,12.73
2023-05-10T12:54:06.117Z,12.15
2023-05-10T12:56:32.713Z,11.60
2023-05-10T12:58:59.285Z,11.38
2023-05-10T13:01:26.087Z,12.35
2023-05-10T13:03:52.725Z,11.35
2023-05-10T13:06:19.423Z,15.48
2023-05-10T13:08:45.982Z,9.02
2023-05-10T13:11:12.757Z,9.77
2023-05-10T13:13:39.438Z,9.73
2023-05-10T13:16:06.388Z,8.65
2023-05-10T13:18:32.960Z,9.65
2023-05-10T13:20:59.622Z,10.52
2023-05-10T13:23:26.188Z,9.95
2023-05-10T13:25:53.117Z,9.15
2023-05-10T13:28:19.673Z,10.90
2023-05-10T13:30:46.406Z,8.48
2023-05-10T13:33:13.180Z,8.30
2023-05-10T13:35:39.747Z,9.23
2023-05-10T13:38:08.982Z,9.93
2023-05-10T13:40:36.890Z,8.35
2023-05-10T13:43:03.828Z,7.35
2023-05-10T13:45:30.363Z,7.40
2023-05-10T13:47:57.044Z,10.40
2023-05-10T13:50:23.642Z,9.45
2023-05-10T13:52:50.240Z,8.52
2023-05-10T13:55:17.370Z,8.60
2023-05-10T13:57:44.276Z,11.43
2023-05-10T14:00:11.453Z,8.23
2023-05-10T14:02:38.147Z,11.85
2023-05-10T14:05:05.357Z,8.27
2023-05-10T14:07:34.929Z,8.65
2023-05-10T14:10:02.035Z,9.68
2023-05-10T14:12:28.753Z,8.70
2023-05-10T14:14:55.380Z,7.97
2023-05-10T14:17:22.799Z,8.88
2023-05-10T14:19:49.437Z,8.80
2023-05-10T14:22:16.201Z,12.05
2023-05-10T14:24:44.409Z,12.48
2023-05-10T14:27:14.111Z,9.52
2023-05-10T14:29:40.897Z,11.60
2023-05-10T14:32:07.683Z,9.65
2023-05-10T14:34:34.496Z,11.27
2023-05-10T14:37:05.048Z,12.95
2023-05-10T14:39:34.527Z,9.75
2023-05-10T14:42:01.038Z,10.18
2023-05-10T14:44:27.896Z,10.02
2023-05-10T14:46:54.421Z,10.68
2023-05-10T14:49:23.718Z,10.85
2023-05-10T14:51:50.530Z,12.35
2023-05-10T14:54:17.148Z,9.32
2023-05-10T14:56:43.849Z,9.85
2023-05-10T14:59:10.463Z,8.30
2023-05-10T15:01:38.897Z,10.98
2023-05-10T15:04:06.117Z,9.98
2023-05-10T15:06:34.823Z,10.35
2023-05-10T15:09:02.506Z,11.10
2023-05-10T15:11:29.108Z,13.52
2023-05-10T15:13:56.051Z,12.82
2023-05-10T15:16:22.962Z,11.73
2023-05-10T15:18:49.709Z,11.73
2023-05-10T15:21:16.309Z,11.63
2023-05-10T15:23:42.903Z,12.50
2023-05-10T15:26:09.465Z,17.95
2023-05-10T15:28:36.089Z,19.55
2023-05-10T15:31:02.768Z,17.88
2023-05-10T15:33:29.749Z,15.82
2023-05-10T15:35:56.764Z,15.20
2023-05-10T15:38:23.580Z,15.15
2023-05-10T15:41:11.439Z,15.57
2023-05-10T15:43:57.808Z,13.98
2023-05-10T15:46:24.736Z,17.33
2023-05-10T15:48:51.402Z,11.70
2023-05-10T15:51:17.982Z,13.25
2023-05-10T15:53:56.434Z,11.98
2023-05-10T15:56:31.090Z,10.55
2023-05-10T15:58:57.739Z,9.82
2023-05-10T16:01:24.452Z,9.70
2023-05-10T16:03:51.128Z,10.38
2023-05-10T16:06:17.756Z,9.05
2023-05-10T16:08:44.383Z,9.52
2023-05-10T16:11:11.084Z,10.48
2023-05-10T16:13:38.025Z,9.60
2023-05-10T16:16:05.268Z,9.60
2023-05-10T16:18:32.651Z,10.73
2023-05-10T16:20:59.484Z,16.30
2023-05-10T16:23:26.164Z,9.75
2023-05-10T16:25:52.830Z,8.75
2023-05-10T16:28:21.285Z,8.25
2023-05-10T16:30:48.649Z,8.73
2023-05-10T16:33:15.591Z,8.77
2023-05-10T16:35:42.266Z,5.85
2023-05-10T16:38:08.794Z,6.35
2023-05-10T16:40:35.625Z,6.22
2023-05-10T16:43:02.175Z,8.02
2023-05-10T16:45:31.971Z,9.70
2023-05-10T16:47:58.683Z,6.70
2023-05-10T16:50:25.241Z,7.95
2023-05-10T16:52:51.859Z,7.88
2023-05-10T16:55:18.676Z,8.80
2023-05-10T16:57:45.461Z,9.02
2023-05-10T17:00:12.922Z,8.90
2023-05-10T17:02:39.654Z,9.48
2023-05-10T17:05:06.646Z,9.27
2023-05-10T17:07:33.250Z,8.43
2023-05-10T17:09:59.961Z,8.02
2023-05-10T17:12:26.613Z,12.07
2023-05-10T17:14:53.408Z,8.90
2023-05-10T17:17:20.041Z,8.52
2023-05-10T17:19:46.638Z,10.00
2023-05-10T17:22:13.947Z,6.90
2023-05-10T17:24:40.690Z,6.22
2023-05-10T17:27:07.284Z,9.20
2023-05-10T17:29:33.979Z,7.80
2023-05-10T17:32:00.755Z,8.35
2023-05-10T17:34:27.531Z,9.55
2023-05-10T17:36:54.276Z,8.93
2023-05-10T17:39:21.350Z,7.95
2023-05-10T17:41:48.026Z,7.10
2023-05-10T17:44:14.654Z,6.70
2023-05-10T17:46:41.241Z,5.95
2023-05-10T17:49:08.032Z,5.55
2023-05-10T17:51:34.587Z,6.28
2023-05-10T17:54:01.189Z,6.72
2023-05-10T17:56:28.799Z,7.72
2023-05-10T17:58:58.513Z,8.88
2023-05-10T18:01:25.137Z,6.10
2023-05-10T18:03:52.867Z,5.15
2023-05-10T18:06:19.512Z,6.10
2023-05-10T18:08:46.093Z,6.78
2023-05-10T18:11:12.847Z,5.60
2023-05-10T18:13:39.650Z,4.57
2023-05-10T18:16:08.718Z,7.38
2023-05-10T18:18:35.725Z,5.03
2023-05-10T18:21:03.753Z,5.25
2023-05-10T18:23:30.365Z,4.68
2023-05-10T18:25:57.688Z,5.60
2023-05-10T18:28:27.078Z,4.85
2023-05-10T18:30:53.659Z,5.68
2023-05-10T18:33:20.260Z,8.15
2023-05-10T18:35:47.140Z,5.43
2023-05-10T18:38:13.819Z,7.10
2023-05-10T18:40:41.935Z,8.52
2023-05-10T18:43:09.167Z,7.43
2023-05-10T18:45:35.928Z,8.30
2023-05-10T18:48:04.954Z,6.93
2023-05-10T18:50:31.629Z,7.40
2023-05-10T18:52:58.435Z,8.38
2023-05-10T18:55:28.473Z,7.80
2023-05-10T18:57:57.813Z,10.35
2023-05-10T19:00:24.760Z,8.20
2023-05-10T19:02:51.921Z,9.20
2023-05-10T19:05:19.017Z,7.30
2023-05-10T19:07:46.446Z,9.43
2023-05-10T19:10:16.492Z,10.65
2023-05-10T19:12:43.224Z,8.35
2023-05-10T19:15:10.758Z,6.05
2023-05-10T19:17:38.138Z,6.60
2023-05-10T19:20:07.506Z,6.05
2023-05-10T19:22:47.317Z,7.05
2023-05-10T19:25:21.902Z,7.82
2023-05-10T19:27:48.496Z,10.23
2023-05-10T19:30:15.292Z,7.00
2023-05-10T19:32:44.235Z,6.97
2023-05-10T19:35:12.736Z,5.97
2023-05-10T19:37:39.316Z,7.25
2023-05-10T19:40:06.801Z,9.10
2023-05-10T19:42:33.539Z,8.57
2023-05-10T19:45:00.169Z,8.73
2023-05-10T19:47:26.846Z,9.13
2023-05-10T19:49:53.548Z,7.80
2023-05-10T19:52:20.144Z,11.02
2023-05-10T19:54:46.707Z,8.88
2023-05-10T19:57:14.035Z,10.65
2023-05-10T19:59:40.861Z,9.60
2023-05-10T20:02:07.598Z,11.75
2023-05-10T20:04:34.115Z,9.63
2023-05-10T20:07:00.731Z,8.02
2023-05-10T20:09:27.344Z,8.55
2023-05-10T20:11:54.352Z,8.07
2023-05-10T20:14:20.902Z,10.35
2023-05-10T20:16:47.643Z,8.30
2023-05-10T20:19:14.490Z,14.07
2023-05-10T20:21:41.170Z,8.63
2023-05-10T20:24:09.221Z,10.30
2023-05-10T20:26:35.804Z,12.50
2023-05-10T20:29:02.458Z,9.73
2023-05-10T20:31:29.241Z,10.95
2023-05-10T20:33:55.986Z,10.48
2023-05-10T20:36:22.625Z,9.30
2023-05-10T20:38:49.352Z,7.95
2023-05-10T20:41:15.935Z,10.35
2023-05-10T20:43:42.493Z,11.25
2023-05-10T20:46:09.193Z,14.68
2023-05-10T20:48:35.859Z,13.50
2023-05-10T20:51:02.642Z,10.68
2023-05-10T20:53:29.752Z,12.00
2023-05-10T20:55:56.380Z,14.15
2023-05-10T20:58:22.988Z,14.13
2023-05-10T21:00:49.586Z,13.27
2023-05-10T21:03:16.452Z,13.00
2023-05-10T21:05:43.008Z,10.73
2023-05-10T21:08:09.575Z,11.70
2023-05-10T21:10:36.274Z,18.75
2023-05-10T21:13:03.037Z,14.43
2023-05-10T21:15:29.700Z,12.68
2023-05-10T21:17:56.316Z,14.57
2023-05-10T21:20:23.700Z,19.85
2023-05-10T21:22:50.380Z,16.95
2023-05-10T21:25:17.987Z,16.80
2023-05-10T21:27:44.610Z,16.88
2023-05-10T21:30:11.488Z,19.80
2023-05-10T21:32:38.081Z,19.85
2023-05-10T21:35:05.443Z,17.15
2023-05-10T21:37:32.184Z,22.65
2023-05-10T21:39:58.791Z,17.05
2023-05-10T21:42:25.356Z,16.52
2023-05-10T21:44:52.115Z,18.52
2023-05-10T21:47:18.696Z,21.02
2023-05-10T21:49:45.217Z,24.70
2023-05-10T21:52:11.883Z,18.83
2023-05-10T21:54:39.011Z,22.23
2023-05-10T21:57:05.610Z,26.92
2023-05-10T21:59:32.266Z,24.20
2023-05-10T22:01:59.065Z,21.70
2023-05-10T22:04:25.787Z,25.70
2023-05-10T22:06:52.372Z,20.65
2023-05-10T22:09:18.995Z,23.92
2023-05-10T22:11:45.718Z,22.20
2023-05-10T22:14:12.246Z,24.35
2023-05-10T22:16:38.933Z,26.58
2023-05-10T22:19:05.608Z,23.58
2023-05-10T22:21:32.247Z,29.45
2023-05-10T22:23:59.140Z,31.63
2023-05-10T22:26:26.108Z,31.70
2023-05-10T22:28:52.642Z,27.90
2023-05-10T22:31:19.204Z,28.55
2023-05-10T22:33:45.952Z,27.33
2023-05-10T22:36:12.574Z,32.47
2023-05-10T22:38:39.175Z,35.65
2023-05-10T22:41:05.756Z,24.42
2023-05-10T22:43:32.613Z,29.08
2023-05-10T22:45:59.358Z,29.80
2023-05-10T22:48:25.965Z,30.35
2023-05-10T22:50:52.578Z,28.00
2023-05-10T22:53:19.158Z,33.90
2023-05-10T22:55:47.130Z,31.05
2023-05-10T22:58:13.844Z,31.42
2023-05-10T23:00:40.949Z,35.88
2023-05-10T23:03:07.731Z,29.50
2023-05-10T23:05:34.443Z,33.55
2023-05-10T23:08:01.112Z,31.13
2023-05-10T23:10:27.877Z,34.53
2023-05-10T23:12:55.619Z,36.03
2023-05-10T23:15:22.372Z,31.83
2023-05-10T23:17:49.072Z,30.50
2023-05-10T23:20:16.165Z,30.58
2023-05-10T23:22:43.061Z,37.63
2023-05-10T23:25:10.290Z,34.65
2023-05-10T23:27:36.856Z,35.17
2023-05-10T23:30:03.551Z,34.53
2023-05-10T23:32:30.227Z,34.65
2023-05-10T23:34:57.978Z,35.17
2023-05-10T23:37:24.607Z,37.28
2023-05-10T23:39:52.176Z,34.75
2023-05-10T23:42:18.866Z,35.13
2023-05-10T23:44:45.509Z,32.17
2023-05-10T23:47:12.114Z,30.02
2023-05-10T23:49:38.840Z,35.10
2023-05-10T23:52:05.391Z,32.78
2023-05-10T23:54:31.942Z,35.08
2023-05-10T23:56:58.456Z,31.92
2023-05-10T23:59:25.070Z,30.95
